Time;durP1;ratioP1;P1;durP2;ratioP2;P2;SDS_P1;SDS_P2;PMS_P1;PMS_P2;Temp;Humidity;BMP_temperature;BMP_pressure;BME280_temperature;BME280_humidity;BME280_pressure;Samples;Min_cycle;Max_cycle;Signal;HPM_P1;HPM_P2
2023/04/19 00:01:25;;;;;;;18.40;15.70;;;11.40;99.90;;;;;;5016370;28;20533;-77
2023/04/19 00:03:50;;;;;;;18.40;16.10;;;11.40;99.90;;;;;;5023819;28;20228;-76
2023/04/19 00:06:16;;;;;;;20.10;16.20;;;11.40;99.90;;;;;;5022279;28;20495;-76
2023/04/19 00:08:42;;;;;;;17.77;15.87;;;11.40;99.90;;;;;;5022742;28;20409;-76
2023/04/19 00:11:09;;;;;;;19.17;16.80;;;11.40;99.90;;;;;;5011863;28;20269;-76
2023/04/19 00:13:35;;;;;;;21.03;16.60;;;11.50;99.90;;;;;;5031179;28;20418;-76
2023/04/19 00:16:01;;;;;;;20.97;17.80;;;11.40;99.90;;;;;;5016949;28;20950;-76
2023/04/19 00:18:26;;;;;;;18.43;16.00;;;11.50;99.90;;;;;;5011254;28;21002;-76
2023/04/19 00:20:52;;;;;;;17.60;15.80;;;11.40;99.90;;;;;;5012827;28;20626;-76
2023/04/19 00:23:17;;;;;;;19.10;16.03;;;11.40;99.90;;;;;;5013715;28;20207;-76
2023/04/19 00:25:45;;;;;;;17.13;15.33;;;11.40;99.90;;;;;;5015268;28;20269;-77
2023/04/19 00:28:10;;;;;;;19.20;16.30;;;11.40;99.90;;;;;;5016690;28;20644;-76
2023/04/19 00:30:36;;;;;;;17.10;15.30;;;11.40;99.90;;;;;;5024129;28;20434;-77
2023/04/19 00:33:02;;;;;;;19.00;15.90;;;11.40;99.90;;;;;;5023133;28;20236;-77
2023/04/19 00:35:27;;;;;;;17.53;15.73;;;11.40;99.90;;;;;;5011505;28;20191;-76
2023/04/19 00:37:53;;;;;;;16.80;14.80;;;11.50;99.90;;;;;;5011302;28;20199;-76
2023/04/19 00:40:19;;;;;;;19.60;15.73;;;11.40;99.90;;;;;;5009733;28;20226;-76
2023/04/19 00:42:44;;;;;;;18.90;15.70;;;11.40;99.90;;;;;;5011086;28;20210;-76
2023/04/19 00:45:10;;;;;;;16.70;14.97;;;11.40;99.90;;;;;;5010960;28;20270;-76
2023/04/19 00:47:37;;;;;;;16.83;15.07;;;11.50;99.90;;;;;;5009553;28;20611;-76
2023/04/19 00:50:04;;;;;;;16.90;15.13;;;11.40;99.90;;;;;;5010702;28;20762;-76
2023/04/19 00:52:31;;;;;;;18.50;15.87;;;11.50;99.90;;;;;;5011061;28;20410;-76
2023/04/19 00:54:57;;;;;;;16.80;15.00;;;11.40;99.90;;;;;;4992694;28;20483;-76
2023/04/19 00:57:24;;;;;;;17.30;13.97;;;11.40;99.90;;;;;;5010226;28;20782;-76
2023/04/19 00:59:50;;;;;;;19.70;15.83;;;11.40;99.90;;;;;;5008984;28;20747;-76
2023/04/19 01:02:16;;;;;;;19.87;17.10;;;11.40;99.90;;;;;;5008951;28;21050;-76
2023/04/19 01:04:42;;;;;;;19.83;16.57;;;11.50;99.90;;;;;;5010116;28;20402;-76
2023/04/19 01:07:08;;;;;;;17.87;15.43;;;11.50;99.90;;;;;;5010175;28;20413;-76
2023/04/19 01:09:34;;;;;;;20.30;16.70;;;11.50;99.90;;;;;;4991510;28;20414;-76
2023/04/19 01:12:02;;;;;;;18.27;16.03;;;11.50;99.90;;;;;;4992271;28;20545;-76
2023/04/19 01:14:28;;;;;;;17.30;15.50;;;11.50;99.90;;;;;;5009912;28;20418;-76
2023/04/19 01:16:53;;;;;;;21.57;16.93;;;11.50;99.90;;;;;;5009764;28;20437;-76
2023/04/19 01:19:20;;;;;;;17.23;15.47;;;11.50;99.90;;;;;;5009846;28;20186;-76
2023/04/19 01:21:45;;;;;;;17.67;15.30;;;11.60;99.90;;;;;;5008399;28;20214;-76
2023/04/19 01:24:11;;;;;;;18.80;16.37;;;11.50;99.90;;;;;;5009684;28;20406;-76
2023/04/19 01:26:37;;;;;;;19.70;16.30;;;11.50;99.90;;;;;;5009950;28;20531;-76
2023/04/19 01:29:02;;;;;;;16.43;14.73;;;11.50;99.90;;;;;;5009586;28;20179;-76
2023/04/19 01:31:28;;;;;;;18.20;16.07;;;11.50;99.90;;;;;;5009410;28;20234;-76
2023/04/19 01:33:54;;;;;;;20.60;15.70;;;11.50;99.90;;;;;;5009231;28;20199;-76
2023/04/19 01:36:20;;;;;;;19.10;15.53;;;11.50;99.90;;;;;;5009179;28;20451;-76
2023/04/19 01:38:46;;;;;;;17.27;14.70;;;11.50;99.90;;;;;;5009457;28;20832;-76
2023/04/19 01:41:12;;;;;;;17.10;15.10;;;11.40;99.90;;;;;;5009256;28;20191;-77
2023/04/19 01:43:38;;;;;;;18.07;14.73;;;11.50;99.90;;;;;;5009192;28;20533;-76
2023/04/19 01:46:04;;;;;;;21.40;14.73;;;11.50;99.90;;;;;;5009712;28;20823;-77
2023/04/19 01:48:29;;;;;;;18.50;14.67;;;11.50;99.90;;;;;;5009559;28;20181;-76
2023/04/19 01:50:55;;;;;;;17.50;14.03;;;11.50;99.90;;;;;;5009113;28;20286;-76
2023/04/19 01:53:21;;;;;;;17.27;15.20;;;11.50;99.90;;;;;;5009333;28;20179;-76
2023/04/19 01:55:46;;;;;;;15.30;13.80;;;11.50;99.90;;;;;;5009451;28;20179;-76
2023/04/19 01:58:12;;;;;;;17.50;14.13;;;11.50;99.90;;;;;;5009422;28;20233;-77
2023/04/19 02:00:38;;;;;;;13.43;12.03;;;11.50;99.90;;;;;;5008983;28;20206;-76
2023/04/19 02:03:03;;;;;;;15.80;12.93;;;11.50;99.90;;;;;;5007703;28;20294;-76
2023/04/19 02:05:29;;;;;;;13.33;11.93;;;11.60;99.90;;;;;;5009443;28;20179;-76
2023/04/19 02:07:55;;;;;;;15.20;12.30;;;11.50;99.90;;;;;;5009643;28;20171;-76
2023/04/19 02:10:20;;;;;;;12.93;11.63;;;11.50;99.90;;;;;;5009938;28;20203;-76
2023/04/19 02:12:46;;;;;;;12.80;11.50;;;11.50;99.90;;;;;;5009998;28;20598;-76
2023/04/19 02:15:12;;;;;;;11.53;10.33;;;11.40;99.90;;;;;;5009600;28;20715;-76
2023/04/19 02:17:37;;;;;;;10.77;9.77;;;11.40;99.90;;;;;;5008989;28;20548;-76
2023/04/19 02:20:04;;;;;;;11.97;10.77;;;11.40;99.90;;;;;;5008848;28;20214;-76
2023/04/19 02:22:30;;;;;;;11.60;10.10;;;11.40;99.90;;;;;;5008779;28;20676;-76
2023/04/19 02:24:56;;;;;;;12.60;10.70;;;11.40;99.90;;;;;;5023951;28;20477;-75
2023/04/19 02:27:21;;;;;;;12.20;9.83;;;11.40;99.90;;;;;;5008719;28;20258;-76
2023/04/19 02:29:47;;;;;;;12.80;9.37;;;11.30;99.90;;;;;;5008791;28;20640;-76
2023/04/19 02:32:13;;;;;;;10.30;9.30;;;11.30;99.90;;;;;;5023800;28;20183;-76
2023/04/19 02:34:38;;;;;;;11.10;10.00;;;11.30;99.90;;;;;;5008633;28;20717;-76
2023/04/19 02:37:04;;;;;;;11.33;9.83;;;11.30;99.90;;;;;;5007997;28;20205;-76
2023/04/19 02:39:30;;;;;;;10.97;9.60;;;11.30;99.90;;;;;;5008706;28;20201;-76
2023/04/19 02:41:56;;;;;;;9.70;8.67;;;11.30;99.90;;;;;;5008366;28;20515;-76
2023/04/19 02:44:21;;;;;;;10.20;9.20;;;11.30;99.90;;;;;;5024752;28;20174;-76
2023/04/19 02:46:49;;;;;;;11.67;9.10;;;11.30;99.90;;;;;;5012550;28;20181;-76
2023/04/19 02:49:15;;;;;;;8.20;7.37;;;11.20;99.90;;;;;;5012988;28;20167;-76
2023/04/19 02:51:40;;;;;;;9.03;8.07;;;11.20;99.90;;;;;;5012480;28;20434;-76
2023/04/19 02:54:06;;;;;;;8.43;7.53;;;11.20;99.90;;;;;;5012565;28;20183;-76
2023/04/19 02:56:31;;;;;;;8.73;7.83;;;11.20;99.90;;;;;;5012637;28;20187;-76
2023/04/19 02:59:00;;;;;;;9.30;7.90;;;11.30;99.90;;;;;;5012418;28;20187;-76
2023/04/19 03:01:26;;;;;;;8.20;7.50;;;11.30;99.90;;;;;;5027254;28;20281;-76
2023/04/19 03:03:51;;;;;;;8.80;7.37;;;11.20;99.90;;;;;;5012328;28;20572;-75
2023/04/19 03:06:17;;;;;;;8.73;6.93;;;11.20;99.90;;;;;;5027608;28;20180;-75
2023/04/19 03:08:43;;;;;;;8.40;7.20;;;11.20;99.90;;;;;;5013249;28;20171;-78
2023/04/19 03:11:11;;;;;;;8.30;7.40;;;11.20;99.90;;;;;;5012143;28;20201;-78
2023/04/19 03:13:38;;;;;;;8.27;6.60;;;11.20;99.90;;;;;;4994158;28;20183;-78
2023/04/19 03:16:05;;;;;;;8.80;7.30;;;11.20;99.90;;;;;;4994432;28;20425;-78
2023/04/19 03:18:30;;;;;;;7.57;6.10;;;11.20;99.90;;;;;;4993010;28;20438;-78
2023/04/19 03:20:56;;;;;;;9.27;7.10;;;11.20;99.90;;;;;;5009135;28;20427;-78
2023/04/19 03:23:22;;;;;;;9.03;6.80;;;11.20;99.90;;;;;;4994209;28;20208;-78
2023/04/19 03:25:47;;;;;;;7.93;7.13;;;11.20;99.90;;;;;;5009615;28;20243;-78
2023/04/19 03:28:13;;;;;;;9.57;6.50;;;11.20;99.90;;;;;;4993934;28;20210;-77
2023/04/19 03:30:39;;;;;;;7.63;6.83;;;11.20;99.90;;;;;;4994092;28;20196;-79
2023/04/19 03:33:05;;;;;;;8.30;6.80;;;11.20;99.90;;;;;;5009504;28;20672;-78
2023/04/19 03:35:31;;;;;;;7.73;6.43;;;11.20;99.90;;;;;;5012303;28;20251;-78
2023/04/19 03:37:57;;;;;;;6.23;5.63;;;11.20;99.90;;;;;;5028480;28;20556;-78
2023/04/19 03:40:22;;;;;;;7.87;6.00;;;11.30;99.90;;;;;;5012998;28;20437;-77
2023/04/19 03:42:48;;;;;;;8.50;6.30;;;11.20;99.90;;;;;;5013454;28;20488;-79
2023/04/19 03:45:14;;;;;;;6.40;5.80;;;11.30;99.90;;;;;;5013709;28;20183;-78
2023/04/19 03:47:40;;;;;;;7.37;5.67;;;11.20;99.90;;;;;;5014398;28;20226;-78
2023/04/19 03:50:06;;;;;;;9.17;6.57;;;11.20;99.90;;;;;;5016145;28;20439;-78
2023/04/19 03:52:32;;;;;;;6.57;5.60;;;11.20;99.90;;;;;;5016928;28;20263;-77
2023/04/19 03:54:58;;;;;;;6.30;5.60;;;11.10;99.90;;;;;;5014558;28;20903;-78
2023/04/19 03:57:24;;;;;;;6.60;5.97;;;11.10;99.90;;;;;;5011873;28;20426;-78
2023/04/19 03:59:49;;;;;;;6.70;5.87;;;11.00;99.90;;;;;;5012651;28;20183;-76
2023/04/19 04:02:15;;;;;;;7.30;6.50;;;11.00;99.90;;;;;;5012286;28;20202;-77
2023/04/19 04:04:40;;;;;;;6.40;5.40;;;11.10;99.90;;;;;;5012232;28;20182;-77
2023/04/19 04:07:06;;;;;;;11.30;6.53;;;11.10;99.90;;;;;;5012553;28;20175;-78
2023/04/19 04:09:32;;;;;;;6.63;5.70;;;11.10;99.90;;;;;;5011151;28;20179;-77
2023/04/19 04:11:57;;;;;;;6.33;5.50;;;11.10;99.90;;;;;;5011143;28;20214;-78
2023/04/19 04:14:23;;;;;;;7.07;6.43;;;11.00;99.90;;;;;;5010619;28;20186;-77
2023/04/19 04:16:49;;;;;;;7.60;6.07;;;11.10;99.90;;;;;;5012382;28;20183;-77
2023/04/19 04:19:15;;;;;;;6.67;5.83;;;11.00;99.90;;;;;;5012516;28;20797;-78
2023/04/19 04:21:40;;;;;;;6.10;5.57;;;11.00;99.90;;;;;;5012156;28;20206;-76
2023/04/19 04:24:06;;;;;;;6.67;6.07;;;11.00;99.90;;;;;;5010969;28;20183;-77
2023/04/19 04:26:32;;;;;;;7.70;5.63;;;11.00;99.90;;;;;;5012195;28;20178;-76
2023/04/19 04:29:00;;;;;;;8.23;5.97;;;10.90;99.90;;;;;;5012091;28;20917;-77
2023/04/19 04:31:27;;;;;;;7.33;5.80;;;10.90;99.90;;;;;;5012257;28;20430;-78
2023/04/19 04:33:54;;;;;;;6.23;5.20;;;10.80;99.90;;;;;;5011831;28;20422;-77
2023/04/19 04:36:20;;;;;;;7.20;6.10;;;10.80;99.90;;;;;;5011503;28;20833;-78
2023/04/19 04:38:46;;;;;;;6.50;5.90;;;10.80;99.90;;;;;;5010659;28;20437;-78
2023/04/19 04:41:12;;;;;;;5.83;5.23;;;10.70;99.90;;;;;;5012145;28;20426;-77
2023/04/19 04:43:38;;;;;;;5.73;4.93;;;10.70;99.90;;;;;;5011840;28;20634;-78
2023/04/19 04:46:04;;;;;;;6.43;5.73;;;10.70;99.90;;;;;;5011917;28;20186;-77
2023/04/19 04:48:30;;;;;;;7.40;6.00;;;10.70;99.90;;;;;;5010949;28;20410;-78
2023/04/19 04:50:56;;;;;;;8.87;5.63;;;10.60;99.90;;;;;;5010815;28;20637;-78
2023/04/19 04:53:24;;;;;;;6.93;6.23;;;10.60;99.90;;;;;;5016752;28;20513;-77
2023/04/19 04:55:51;;;;;;;8.00;6.50;;;10.50;99.90;;;;;;5025455;28;20417;-78
2023/04/19 04:58:16;;;;;;;7.17;5.63;;;10.50;99.90;;;;;;5026912;28;20432;-78
2023/04/19 05:00:42;;;;;;;7.17;6.17;;;10.50;99.90;;;;;;5028761;28;20437;-78
2023/04/19 05:03:08;;;;;;;9.07;6.13;;;10.50;99.90;;;;;;5011624;28;20210;-77
2023/04/19 05:05:33;;;;;;;8.60;6.00;;;10.50;99.90;;;;;;5019534;28;20433;-78
2023/04/19 05:08:00;;;;;;;7.23;5.90;;;10.50;99.90;;;;;;5028326;28;20174;-78
2023/04/19 05:10:25;;;;;;;7.23;6.53;;;10.50;99.90;;;;;;5031253;28;20198;-78
2023/04/19 05:12:51;;;;;;;7.87;6.80;;;10.50;99.90;;;;;;5017032;28;20422;-77
2023/04/19 05:15:16;;;;;;;7.73;6.33;;;10.40;99.90;;;;;;5011568;28;20243;-77
2023/04/19 05:17:42;;;;;;;6.83;6.13;;;10.50;99.90;;;;;;5009899;28;20274;-77
2023/04/19 05:20:08;;;;;;;8.60;7.43;;;10.40;99.90;;;;;;5009517;28;20216;-77
2023/04/19 05:22:34;;;;;;;8.20;7.07;;;10.40;99.90;;;;;;5010971;28;20344;-78
2023/04/19 05:25:01;;;;;;;7.53;6.47;;;10.40;99.90;;;;;;5010421;28;20422;-77
2023/04/19 05:27:26;;;;;;;7.10;6.40;;;10.40;99.90;;;;;;5017611;28;20181;-77
2023/04/19 05:29:52;;;;;;;9.57;7.83;;;10.40;99.90;;;;;;5018873;28;20422;-78
2023/04/19 05:32:18;;;;;;;8.03;6.83;;;10.00;99.90;;;;;;5020092;28;20261;-78
2023/04/19 05:34:44;;;;;;;7.50;6.70;;;10.50;99.90;;;;;;5021255;28;20250;-78
2023/04/19 05:37:09;;;;;;;10.53;7.37;;;10.50;99.90;;;;;;5028278;28;20466;-78
2023/04/19 05:39:35;;;;;;;7.87;7.07;;;10.50;99.90;;;;;;5029653;28;20457;-78
2023/04/19 05:42:01;;;;;;;7.50;6.70;;;10.50;99.90;;;;;;5029234;28;20695;-76
2023/04/19 05:44:26;;;;;;;8.57;7.10;;;10.50;99.90;;;;;;5016659;28;20877;-78
2023/04/19 05:46:52;;;;;;;12.03;7.90;;;10.50;99.90;;;;;;5011457;28;20174;-78
2023/04/19 05:49:20;;;;;;;8.20;7.20;;;10.50;99.90;;;;;;5011213;28;20230;-77
2023/04/19 05:51:45;;;;;;;10.97;7.87;;;10.60;99.90;;;;;;5010398;28;20789;-78
2023/04/19 05:54:13;;;;;;;8.53;7.37;;;10.60;99.90;;;;;;5008561;28;20497;-75
2023/04/19 05:56:38;;;;;;;9.20;7.53;;;10.70;99.90;;;;;;5009949;28;20175;-77
2023/04/19 05:59:05;;;;;;;10.67;7.80;;;10.70;99.90;;;;;;5011123;28;20476;-77
2023/04/19 06:01:31;;;;;;;8.57;7.57;;;10.70;99.90;;;;;;5010100;28;20458;-78
2023/04/19 06:03:56;;;;;;;8.80;7.90;;;10.80;99.90;;;;;;5010872;28;20460;-76
2023/04/19 06:06:22;;;;;;;7.70;6.90;;;10.80;99.90;;;;;;5011516;28;20233;-78
2023/04/19 06:08:48;;;;;;;8.63;7.13;;;10.70;99.90;;;;;;5011156;28;20202;-77
2023/04/19 06:11:14;;;;;;;7.77;6.97;;;10.80;99.90;;;;;;5010949;28;20203;-77
2023/04/19 06:13:40;;;;;;;7.67;6.87;;;10.90;99.90;;;;;;5009654;28;20426;-78
2023/04/19 06:16:06;;;;;;;8.57;7.30;;;10.90;99.90;;;;;;5025497;28;20559;-78
2023/04/19 06:18:32;;;;;;;11.00;7.27;;;11.00;99.90;;;;;;5020382;28;20261;-78
2023/04/19 06:20:58;;;;;;;9.30;6.57;;;11.00;99.90;;;;;;5026681;28;20441;-77
2023/04/19 06:23:24;;;;;;;9.97;7.47;;;11.10;99.90;;;;;;5009439;28;20472;-78
2023/04/19 06:25:50;;;;;;;9.07;6.90;;;11.20;99.90;;;;;;5011039;28;20266;-77
2023/04/19 06:28:16;;;;;;;10.03;7.70;;;11.20;99.90;;;;;;5009313;28;20513;-77
2023/04/19 06:30:41;;;;;;;8.87;6.40;;;11.20;99.90;;;;;;5010271;28;20210;-77
2023/04/19 06:33:07;;;;;;;7.80;5.80;;;11.30;99.90;;;;;;5010027;28;20187;-78
2023/04/19 06:35:32;;;;;;;7.97;6.47;;;11.40;99.80;;;;;;5010547;28;20215;-78
2023/04/19 06:37:58;;;;;;;7.90;6.40;;;11.40;99.90;;;;;;5010378;28;20213;-78
2023/04/19 06:40:28;;;;;;;9.47;5.73;;;11.50;99.50;;;;;;5009271;28;20213;-77
2023/04/19 06:42:54;;;;;;;7.80;6.50;;;11.70;99.80;;;;;;5010827;28;20462;-77
2023/04/19 06:45:20;;;;;;;10.53;6.13;;;11.80;99.60;;;;;;5010811;28;20414;-77
2023/04/19 06:47:46;;;;;;;7.43;6.60;;;11.80;99.10;;;;;;5010577;28;20432;-76
2023/04/19 06:50:12;;;;;;;8.97;5.50;;;11.80;97.40;;;;;;5010442;28;20430;-78
2023/04/19 06:52:38;;;;;;;9.93;5.77;;;11.80;97.30;;;;;;5010806;28;20229;-78
2023/04/19 06:55:05;;;;;;;8.13;6.10;;;11.80;97.70;;;;;;5009944;28;20468;-77
2023/04/19 06:57:30;;;;;;;7.83;5.67;;;11.90;98.00;;;;;;5008566;28;20914;-78
2023/04/19 06:59:57;;;;;;;7.43;6.00;;;11.80;97.30;;;;;;5008585;28;20418;-77
2023/04/19 07:02:23;;;;;;;8.57;5.67;;;11.80;97.70;;;;;;5010620;28;20207;-78
2023/04/19 07:04:48;;;;;;;6.13;5.53;;;11.80;97.10;;;;;;5009880;28;20418;-76
2023/04/19 07:07:14;;;;;;;6.10;5.23;;;11.80;96.60;;;;;;5009749;28;20217;-78
2023/04/19 07:09:40;;;;;;;7.27;5.17;;;11.80;97.00;;;;;;5010290;28;20218;-78
2023/04/19 07:12:05;;;;;;;7.60;5.30;;;11.80;96.40;;;;;;5012415;28;20568;-77
2023/04/19 07:14:31;;;;;;;9.10;5.60;;;11.90;96.90;;;;;;5011930;28;20265;-77
2023/04/19 07:16:57;;;;;;;8.93;4.90;;;11.90;96.30;;;;;;5022176;28;20187;-77
2023/04/19 07:19:22;;;;;;;10.50;5.83;;;11.90;96.50;;;;;;5008968;28;20811;-78
2023/04/19 07:21:49;;;;;;;9.13;5.53;;;11.90;95.70;;;;;;5010288;28;20207;-78
2023/04/19 07:24:15;;;;;;;7.33;5.10;;;11.90;96.50;;;;;;5010316;28;20178;-77
2023/04/19 07:26:40;;;;;;;6.63;5.10;;;11.90;96.20;;;;;;5009192;28;20414;-78
2023/04/19 07:29:06;;;;;;;5.70;5.03;;;11.90;95.60;;;;;;5025712;28;20534;-77
2023/04/19 07:31:32;;;;;;;5.50;5.00;;;11.90;95.60;;;;;;5011363;28;20199;-78
2023/04/19 07:33:57;;;;;;;5.30;4.80;;;12.00;96.20;;;;;;5013884;28;20186;-78
2023/04/19 07:36:23;;;;;;;5.80;4.73;;;11.90;95.60;;;;;;5013717;28;20264;-78
2023/04/19 07:38:49;;;;;;;6.23;4.90;;;11.90;95.90;;;;;;5013297;28;20838;-77
2023/04/19 07:41:14;;;;;;;9.10;5.20;;;12.00;95.60;;;;;;5011786;28;20206;-78
2023/04/19 07:43:40;;;;;;;5.70;4.53;;;12.00;95.20;;;;;;5012161;28;20253;-77
2023/04/19 07:46:15;;;;;;;6.53;4.60;;;11.90;95.20;;;;;;5005632;28;20190;-78
2023/04/19 07:48:41;;;;;;;6.27;4.80;;;12.00;94.70;;;;;;5013399;28;20198;-77
2023/04/19 07:51:08;;;;;;;6.90;4.27;;;12.00;94.70;;;;;;5004911;28;20974;-78
2023/04/19 07:53:34;;;;;;;5.23;4.07;;;12.00;94.60;;;;;;4993350;28;20426;-77
2023/04/19 07:55:59;;;;;;;7.00;4.00;;;11.90;93.60;;;;;;4993436;28;20605;-78
2023/04/19 07:58:25;;;;;;;5.23;4.40;;;12.00;93.80;;;;;;5008723;28;20277;-78
2023/04/19 08:00:51;;;;;;;5.03;4.20;;;11.90;93.10;;;;;;4991262;28;20563;-78
2023/04/19 08:03:17;;;;;;;8.73;4.07;;;11.80;92.90;;;;;;4993263;28;20211;-77
2023/04/19 08:05:42;;;;;;;6.60;3.73;;;11.80;93.10;;;;;;5008644;28;20187;-78
2023/04/19 08:08:08;;;;;;;5.10;4.10;;;11.80;93.50;;;;;;5008520;28;20601;-78
2023/04/19 08:10:34;;;;;;;6.60;4.00;;;11.80;93.50;;;;;;4993530;28;20203;-78
2023/04/19 08:13:00;;;;;;;6.60;4.60;;;11.80;92.90;;;;;;5008188;28;20748;-77
2023/04/19 08:15:26;;;;;;;4.00;3.60;;;11.70;92.50;;;;;;5011766;28;20414;-78
2023/04/19 08:17:52;;;;;;;5.13;3.93;;;11.70;93.30;;;;;;5012575;28;20786;-78
2023/04/19 08:20:18;;;;;;;7.57;4.10;;;11.60;93.10;;;;;;5012133;28;20203;-77
2023/04/19 08:22:44;;;;;;;7.23;4.43;;;11.60;93.30;;;;;;5012635;28;20206;-78
2023/04/19 08:25:10;;;;;;;4.93;4.40;;;11.70;94.20;;;;;;5012719;28;20957;-78
2023/04/19 08:27:35;;;;;;;4.60;4.10;;;11.70;94.20;;;;;;5012576;28;20422;-78
2023/04/19 08:30:02;;;;;;;5.30;4.43;;;11.70;93.50;;;;;;5011099;28;20183;-76
2023/04/19 08:32:28;;;;;;;6.40;4.07;;;11.70;93.80;;;;;;5012623;28;20600;-77
2023/04/19 08:34:53;;;;;;;5.50;3.17;;;11.60;93.90;;;;;;5012682;28;20425;-77
2023/04/19 08:37:19;;;;;;;5.60;4.10;;;11.60;94.10;;;;;;5011001;28;20188;-78
2023/04/19 08:39:45;;;;;;;5.13;3.90;;;11.50;93.60;;;;;;5011288;28;20191;-78
2023/04/19 08:42:11;;;;;;;4.20;3.33;;;11.40;93.40;;;;;;5010208;28;20993;-78
2023/04/19 08:44:38;;;;;;;5.60;3.47;;;11.30;93.20;;;;;;5012592;28;20511;-78
2023/04/19 08:47:04;;;;;;;5.00;3.47;;;11.40;93.80;;;;;;5012646;28;20190;-76
2023/04/19 08:49:33;;;;;;;3.80;3.40;;;11.40;93.50;;;;;;5014322;28;20445;-78
2023/04/19 08:52:01;;;;;;;5.33;3.83;;;11.50;94.40;;;;;;5014441;28;20438;-78
2023/04/19 08:54:29;;;;;;;4.30;3.63;;;11.60;94.40;;;;;;5011949;28;20422;-78
2023/04/19 08:56:58;;;;;;;4.27;3.83;;;11.70;94.10;;;;;;5011306;28;20426;-76
2023/04/19 08:59:23;;;;;;;5.47;3.63;;;11.70;93.90;;;;;;5009371;28;20517;-78
2023/04/19 09:01:49;;;;;;;4.47;3.20;;;11.70;93.70;;;;;;5011594;28;20521;-78
2023/04/19 09:04:15;;;;;;;4.70;3.20;;;11.80;93.70;;;;;;5010308;28;20187;-78
2023/04/19 09:06:40;;;;;;;10.07;3.33;;;11.80;92.60;;;;;;5010815;28;20274;-78
2023/04/19 09:09:19;;;;;;;4.17;2.97;;;12.00;93.60;;;;;;5012427;28;20179;-78
2023/04/19 09:11:45;;;;;;;3.00;2.70;;;12.00;91.90;;;;;;5006245;28;20241;-78
2023/04/19 09:14:14;;;;;;;6.50;3.80;;;12.10;92.60;;;;;;5006973;28;20883;-78
2023/04/19 09:16:41;;;;;;;3.40;2.97;;;12.10;92.30;;;;;;4992013;28;20419;-78
2023/04/19 09:19:08;;;;;;;4.90;3.30;;;12.10;91.60;;;;;;5006762;28;20531;-78
2023/04/19 09:21:34;;;;;;;3.53;2.67;;;12.10;90.90;;;;;;5006621;28;20442;-78
2023/04/19 09:24:01;;;;;;;2.67;2.47;;;12.20;90.50;;;;;;4991373;28;20557;-78
2023/04/19 09:26:30;;;;;;;2.47;2.27;;;12.30;91.30;;;;;;4990748;28;20407;-77
2023/04/19 09:29:03;;;;;;;3.47;2.70;;;12.40;90.00;;;;;;5006403;28;20411;-78
2023/04/19 09:31:31;;;;;;;3.63;2.97;;;12.50;89.60;;;;;;5006419;28;20453;-78
2023/04/19 09:33:57;;;;;;;2.73;2.50;;;12.50;87.60;;;;;;5006735;28;20419;-78
2023/04/19 09:36:30;;;;;;;3.53;2.63;;;12.60;85.30;;;;;;4991630;28;20456;-78
2023/04/19 09:38:57;;;;;;;3.17;2.70;;;12.70;88.10;;;;;;4991350;28;20439;-77
2023/04/19 09:41:24;;;;;;;2.80;2.27;;;12.80;85.60;;;;;;4991387;28;20434;-78
2023/04/19 09:43:50;;;;;;;2.77;2.53;;;12.90;85.30;;;;;;5006203;28;20694;-77
2023/04/19 09:46:32;;;;;;;3.10;2.10;;;12.90;84.50;;;;;;4990375;28;20487;-77
2023/04/19 09:49:24;;;;;;;3.20;2.30;;;13.00;84.70;;;;;;5006604;28;20414;-77
2023/04/19 09:51:55;;;;;;;10.43;3.17;;;13.00;85.10;;;;;;5006475;28;20439;-78
2023/04/19 09:54:22;;;;;;;2.97;2.67;;;13.00;82.80;;;;;;4991077;28;20419;-78
2023/04/19 09:56:49;;;;;;;6.33;3.27;;;13.20;84.20;;;;;;4991281;28;20411;-76
2023/04/19 09:59:15;;;;;;;3.87;2.57;;;13.10;81.20;;;;;;4991045;28;20430;-75
2023/04/19 10:01:51;;;;;;;7.40;2.40;;;13.20;82.10;;;;;;4989873;28;20461;-77
2023/04/19 10:04:21;;;;;;;5.20;3.00;;;13.20;82.00;;;;;;4990693;28;20418;-78
2023/04/19 10:06:53;;;;;;;3.53;2.43;;;13.40;84.50;;;;;;5006537;28;20426;-77
2023/04/19 10:09:24;;;;;;;4.07;2.63;;;13.40;83.20;;;;;;5006440;28;20427;-77
2023/04/19 10:11:52;;;;;;;3.70;3.20;;;13.50;84.50;;;;;;4996741;28;20935;-78
2023/04/19 10:14:32;;;;;;;3.37;3.07;;;13.80;83.90;;;;;;5009205;28;20950;-78
2023/04/19 10:16:59;;;;;;;4.93;3.73;;;13.90;82.10;;;;;;5011072;28;20497;-78
2023/04/19 10:19:26;;;;;;;5.83;3.57;;;14.00;81.20;;;;;;5010558;28;20417;-78
2023/04/19 10:21:52;;;;;;;4.07;3.10;;;14.10;81.80;;;;;;5009369;28;20433;-77
2023/04/19 10:24:18;;;;;;;4.30;3.17;;;14.10;79.30;;;;;;5008942;28;20791;-78
2023/04/19 10:27:12;;;;;;;6.33;3.70;;;14.10;78.40;;;;;;5010578;28;20493;-78
2023/04/19 10:29:56;;;;;;;4.63;3.63;;;14.00;75.50;;;;;;5010837;28;20416;-77
2023/04/19 10:32:42;;;;;;;3.80;3.40;;;14.00;78.80;;;;;;5010872;28;20409;-77
2023/04/19 10:35:36;;;;;;;5.40;3.30;;;14.10;78.40;;;;;;5009778;28;20406;-77
2023/04/19 10:38:05;;;;;;;3.93;3.33;;;14.10;77.30;;;;;;5008165;28;20457;-77
2023/04/19 10:40:50;;;;;;;3.40;3.00;;;14.20;77.90;;;;;;5010780;28;20934;-78
2023/04/19 10:43:17;;;;;;;5.13;2.87;;;14.20;78.80;;;;;;5010339;28;20471;-77
2023/04/19 10:45:43;;;;;;;3.80;3.37;;;14.30;78.50;;;;;;5009732;28;20981;-78
2023/04/19 10:48:32;;;;;;;3.70;3.27;;;14.40;74.70;;;;;;5010214;28;20414;-78
2023/04/19 10:51:02;;;;;;;3.40;3.10;;;14.40;75.90;;;;;;5009407;28;20529;-78
2023/04/19 10:53:46;;;;;;;4.50;3.03;;;14.50;76.90;;;;;;5009052;28;20476;-78
2023/04/19 10:56:12;;;;;;;5.03;3.03;;;14.50;74.60;;;;;;5009279;28;20409;-78
2023/04/19 10:59:01;;;;;;;3.67;3.37;;;14.50;71.60;;;;;;5009261;28;20780;-77
2023/04/19 11:01:38;;;;;;;3.17;2.87;;;14.50;69.20;;;;;;5009645;28;20934;-78
2023/04/19 11:04:12;;;;;;;2.50;2.40;;;14.50;66.20;;;;;;5008747;28;20484;-77
2023/04/19 11:07:02;;;;;;;3.57;3.20;;;14.50;67.30;;;;;;5012301;28;20406;-79
2023/04/19 11:09:33;;;;;;;5.83;3.07;;;14.40;67.50;;;;;;5013062;28;20413;-78
2023/04/19 11:12:00;;;;;;;4.10;3.00;;;14.40;67.60;;;;;;5005656;28;20441;-77
2023/04/19 11:14:28;;;;;;;8.50;2.93;;;14.50;68.00;;;;;;5009226;28;20481;-78
2023/04/19 11:16:54;;;;;;;4.47;3.47;;;14.50;67.80;;;;;;4994470;28;20784;-78
2023/04/19 11:19:20;;;;;;;3.80;3.10;;;14.60;65.30;;;;;;5008938;28;20419;-78
2023/04/19 11:21:46;;;;;;;3.90;3.07;;;14.70;67.60;;;;;;4993016;28;20199;-77
2023/04/19 11:24:14;;;;;;;6.57;2.93;;;14.70;68.20;;;;;;4993568;28;20212;-78
2023/04/19 11:26:42;;;;;;;3.93;3.17;;;14.80;64.80;;;;;;4994728;28;20442;-78
2023/04/19 11:29:09;;;;;;;4.83;3.20;;;14.80;63.70;;;;;;4994480;28;20446;-78
2023/04/19 11:31:35;;;;;;;3.73;3.27;;;14.80;63.90;;;;;;4995108;28;20473;-77
2023/04/19 11:34:02;;;;;;;4.20;3.33;;;14.80;63.90;;;;;;5009787;28;20772;-78
2023/04/19 11:36:28;;;;;;;4.67;3.37;;;14.90;66.70;;;;;;5009502;28;20443;-78
2023/04/19 11:38:53;;;;;;;5.00;3.80;;;14.90;61.00;;;;;;4994415;28;20431;-78
2023/04/19 11:41:19;;;;;;;4.53;3.60;;;14.90;64.80;;;;;;5016510;28;20543;-76
2023/04/19 11:43:45;;;;;;;3.77;3.20;;;14.90;61.40;;;;;;5015907;28;20476;-77
2023/04/19 11:46:12;;;;;;;4.37;3.50;;;15.00;61.10;;;;;;5018805;28;20465;-78
2023/04/19 11:48:53;;;;;;;7.73;4.00;;;15.00;64.70;;;;;;5000752;28;20469;-75
2023/04/19 11:51:19;;;;;;;8.07;3.97;;;15.10;65.70;;;;;;5012244;28;20438;-78
2023/04/19 11:53:45;;;;;;;8.37;4.10;;;15.10;65.20;;;;;;4996077;28;20453;-78
2023/04/19 11:56:11;;;;;;;4.07;3.67;;;15.10;64.20;;;;;;5013863;28;20527;-78
2023/04/19 11:58:47;;;;;;;10.00;5.63;;;15.10;67.80;;;;;;5012249;28;20413;-78
2023/04/19 12:01:18;;;;;;;5.90;3.83;;;15.10;63.90;;;;;;5011966;28;20218;-78
2023/04/19 12:03:48;;;;;;;4.43;4.00;;;15.20;68.40;;;;;;5011776;28;20457;-78
2023/04/19 12:06:23;;;;;;;4.87;4.37;;;15.10;63.90;;;;;;5013581;28;20458;-76
2023/04/19 12:08:50;;;;;;;7.27;4.60;;;15.00;64.10;;;;;;5013160;28;20410;-77
2023/04/19 12:11:20;;;;;;;10.87;4.67;;;15.00;63.60;;;;;;5011882;28;20449;-78
2023/04/19 12:13:46;;;;;;;5.73;4.13;;;15.00;65.60;;;;;;5028367;28;20418;-78
2023/04/19 12:16:12;;;;;;;5.87;4.00;;;15.10;66.20;;;;;;5013062;28;20414;-78
2023/04/19 12:18:50;;;;;;;6.10;4.50;;;15.10;64.60;;;;;;5027620;28;20508;-77
2023/04/19 12:21:28;;;;;;;5.27;4.50;;;15.10;67.80;;;;;;5013186;28;20576;-79
2023/04/19 12:23:58;;;;;;;5.67;4.90;;;15.30;65.90;;;;;;5013076;28;20556;-77
2023/04/19 12:26:27;;;;;;;7.33;4.80;;;15.20;66.20;;;;;;5029381;28;20423;-77
2023/04/19 12:28:58;;;;;;;9.07;4.80;;;15.20;65.80;;;;;;5013187;28;20429;-77
2023/04/19 12:31:24;;;;;;;7.40;4.50;;;15.20;67.20;;;;;;5027610;28;20442;-77
2023/04/19 12:33:49;;;;;;;4.83;4.43;;;15.20;66.80;;;;;;5011948;28;20556;-77
2023/04/19 12:36:15;;;;;;;5.40;3.90;;;15.20;64.50;;;;;;5027582;28;20421;-78
2023/04/19 12:38:41;;;;;;;6.30;4.53;;;15.30;63.10;;;;;;5027241;28;20672;-78
2023/04/19 12:41:07;;;;;;;5.07;4.47;;;15.30;63.30;;;;;;4994380;28;20574;-77
2023/04/19 12:43:33;;;;;;;5.37;4.47;;;15.30;64.00;;;;;;5010646;28;20457;-78